sensor_id;sensor_type;location;lat;lon;timestamp;P1;durP1;ratioP1;P2;durP2;ratioP2
70342;SDS011;57767;42.068;24.752;2023-12-28T00:00:49;3.88;;;2.80;;
70342;SDS011;57767;42.068;24.752;2023-12-28T00:01:51;3.78;;;3.00;;
70342;SDS011;57767;42.068;24.752;2023-12-28T00:02:53;5.35;;;3.22;;
70342;SDS011;57767;42.068;24.752;2023-12-28T00:03:55;6.15;;;3.28;;
70342;SDS011;57767;42.068;24.752;2023-12-28T00:04:56;5.78;;;3.35;;
70342;SDS011;57767;42.068;24.752;2023-12-28T00:05:58;5.47;;;2.80;;
70342;SDS011;57767;42.068;24.752;2023-12-28T00:07:01;4.55;;;3.47;;
70342;SDS011;57767;42.068;24.752;2023-12-28T00:08:04;10.85;;;3.45;;
70342;SDS011;57767;42.068;24.752;2023-12-28T00:09:05;4.60;;;3.42;;
70342;SDS011;57767;42.068;24.752;2023-12-28T00:10:12;6.13;;;3.60;;
70342;SDS011;57767;42.068;24.752;2023-12-28T00:11:14;5.10;;;3.58;;
70342;SDS011;57767;42.068;24.752;2023-12-28T00:12:16;5.63;;;3.22;;
70342;SDS011;57767;42.068;24.752;2023-12-28T00:13:17;4.53;;;3.42;;
70342;SDS011;57767;42.068;24.752;2023-12-28T00:14:19;7.80;;;3.33;;
70342;SDS011;57767;42.068;24.752;2023-12-28T00:15:21;5.55;;;3.60;;
70342;SDS011;57767;42.068;24.752;2023-12-28T00:16:23;8.45;;;3.78;;
70342;SDS011;57767;42.068;24.752;2023-12-28T00:17:24;5.28;;;3.17;;
70342;SDS011;57767;42.068;24.752;2023-12-28T00:18:26;4.95;;;3.45;;
70342;SDS011;57767;42.068;24.752;2023-12-28T00:19:28;6.25;;;3.63;;
70342;SDS011;57767;42.068;24.752;2023-12-28T00:20:30;4.70;;;3.50;;
70342;SDS011;57767;42.068;24.752;2023-12-28T00:21:31;5.20;;;3.40;;
70342;SDS011;57767;42.068;24.752;2023-12-28T00:22:33;6.20;;;3.60;;
70342;SDS011;57767;42.068;24.752;2023-12-28T00:23:34;8.00;;;3.72;;
70342;SDS011;57767;42.068;24.752;2023-12-28T00:24:36;7.10;;;3.00;;
70342;SDS011;57767;42.068;24.752;2023-12-28T00:25:38;5.30;;;3.25;;
70342;SDS011;57767;42.068;24.752;2023-12-28T00:26:39;6.35;;;3.17;;
70342;SDS011;57767;42.068;24.752;2023-12-28T00:27:41;9.77;;;3.15;;
70342;SDS011;57767;42.068;24.752;2023-12-28T00:28:43;5.32;;;3.20;;
70342;SDS011;57767;42.068;24.752;2023-12-28T00:29:44;4.93;;;2.95;;
70342;SDS011;57767;42.068;24.752;2023-12-28T00:30:46;6.03;;;3.00;;
70342;SDS011;57767;42.068;24.752;2023-12-28T00:31:48;5.72;;;3.13;;
70342;SDS011;57767;42.068;24.752;2023-12-28T00:32:49;5.38;;;3.10;;
70342;SDS011;57767;42.068;24.752;2023-12-28T00:33:51;5.03;;;3.03;;
70342;SDS011;57767;42.068;24.752;2023-12-28T00:34:53;6.43;;;3.40;;
70342;SDS011;57767;42.068;24.752;2023-12-28T00:35:55;4.75;;;3.20;;
70342;SDS011;57767;42.068;24.752;2023-12-28T00:36:56;4.35;;;3.22;;
70342;SDS011;57767;42.068;24.752;2023-12-28T00:37:58;5.25;;;3.17;;
70342;SDS011;57767;42.068;24.752;2023-12-28T00:39:00;4.50;;;3.03;;
70342;SDS011;57767;42.068;24.752;2023-12-28T00:40:02;5.25;;;3.00;;
70342;SDS011;57767;42.068;24.752;2023-12-28T00:41:04;4.78;;;2.97;;
70342;SDS011;57767;42.068;24.752;2023-12-28T00:42:06;6.07;;;3.30;;
70342;SDS011;57767;42.068;24.752;2023-12-28T00:43:08;4.43;;;3.25;;
70342;SDS011;57767;42.068;24.752;2023-12-28T00:44:09;4.30;;;2.95;;
70342;SDS011;57767;42.068;24.752;2023-12-28T00:45:11;4.35;;;2.90;;
70342;SDS011;57767;42.068;24.752;2023-12-28T00:46:13;6.97;;;3.47;;
70342;SDS011;57767;42.068;24.752;2023-12-28T00:47:14;4.43;;;3.20;;
70342;SDS011;57767;42.068;24.752;2023-12-28T00:48:16;4.10;;;3.10;;
70342;SDS011;57767;42.068;24.752;2023-12-28T00:49:18;4.63;;;3.25;;
70342;SDS011;57767;42.068;24.752;2023-12-28T00:50:19;4.47;;;3.08;;
70342;SDS011;57767;42.068;24.752;2023-12-28T00:51:21;4.72;;;3.13;;
70342;SDS011;57767;42.068;24.752;2023-12-28T00:52:23;3.75;;;3.13;;
70342;SDS011;57767;42.068;24.752;2023-12-28T00:53:25;4.57;;;3.08;;
70342;SDS011;57767;42.068;24.752;2023-12-28T00:54:27;4.13;;;3.30;;
70342;SDS011;57767;42.068;24.752;2023-12-28T00:55:30;5.57;;;3.83;;
70342;SDS011;57767;42.068;24.752;2023-12-28T00:56:32;5.50;;;3.70;;
70342;SDS011;57767;42.068;24.752;2023-12-28T00:57:33;4.50;;;3.67;;
70342;SDS011;57767;42.068;24.752;2023-12-28T00:58:38;5.82;;;4.32;;
70342;SDS011;57767;42.068;24.752;2023-12-28T00:59:40;6.90;;;5.03;;
70342;SDS011;57767;42.068;24.752;2023-12-28T01:00:42;5.68;;;4.10;;
70342;SDS011;57767;42.068;24.752;2023-12-28T01:01:44;6.32;;;3.80;;
70342;SDS011;57767;42.068;24.752;2023-12-28T01:02:45;8.98;;;3.50;;
70342;SDS011;57767;42.068;24.752;2023-12-28T01:03:50;6.38;;;3.90;;
70342;SDS011;57767;42.068;24.752;2023-12-28T01:04:52;6.95;;;4.10;;
70342;SDS011;57767;42.068;24.752;2023-12-28T01:05:54;9.23;;;4.50;;
70342;SDS011;57767;42.068;24.752;2023-12-28T01:06:55;5.95;;;4.18;;
70342;SDS011;57767;42.068;24.752;2023-12-28T01:07:57;7.53;;;4.40;;
70342;SDS011;57767;42.068;24.752;2023-12-28T01:08:59;7.45;;;4.75;;
70342;SDS011;57767;42.068;24.752;2023-12-28T01:10:01;6.15;;;4.20;;
70342;SDS011;57767;42.068;24.752;2023-12-28T01:11:02;5.97;;;3.67;;
70342;SDS011;57767;42.068;24.752;2023-12-28T01:12:04;6.05;;;3.95;;
70342;SDS011;57767;42.068;24.752;2023-12-28T01:13:06;6.43;;;3.85;;
70342;SDS011;57767;42.068;24.752;2023-12-28T01:14:08;4.75;;;3.50;;
70342;SDS011;57767;42.068;24.752;2023-12-28T01:15:09;4.78;;;3.80;;
70342;SDS011;57767;42.068;24.752;2023-12-28T01:16:14;4.65;;;3.35;;
70342;SDS011;57767;42.068;24.752;2023-12-28T01:17:16;4.63;;;3.15;;
70342;SDS011;57767;42.068;24.752;2023-12-28T01:18:17;4.47;;;3.30;;
70342;SDS011;57767;42.068;24.752;2023-12-28T01:19:19;6.13;;;3.30;;
70342;SDS011;57767;42.068;24.752;2023-12-28T01:20:21;4.90;;;3.33;;
70342;SDS011;57767;42.068;24.752;2023-12-28T01:21:23;5.18;;;3.10;;
70342;SDS011;57767;42.068;24.752;2023-12-28T01:22:26;6.32;;;3.40;;
70342;SDS011;57767;42.068;24.752;2023-12-28T01:23:27;5.00;;;3.35;;
70342;SDS011;57767;42.068;24.752;2023-12-28T01:24:29;5.93;;;3.05;;
70342;SDS011;57767;42.068;24.752;2023-12-28T01:25:31;3.60;;;2.53;;
70342;SDS011;57767;42.068;24.752;2023-12-28T01:26:32;4.35;;;2.33;;
70342;SDS011;57767;42.068;24.752;2023-12-28T01:27:35;4.35;;;2.72;;
70342;SDS011;57767;42.068;24.752;2023-12-28T01:28:37;4.25;;;2.70;;
70342;SDS011;57767;42.068;24.752;2023-12-28T01:29:40;4.78;;;2.90;;
70342;SDS011;57767;42.068;24.752;2023-12-28T01:30:42;4.60;;;2.60;;
70342;SDS011;57767;42.068;24.752;2023-12-28T01:31:45;4.93;;;2.40;;
70342;SDS011;57767;42.068;24.752;2023-12-28T01:32:47;3.28;;;2.22;;
70342;SDS011;57767;42.068;24.752;2023-12-28T01:33:48;4.57;;;2.80;;
70342;SDS011;57767;42.068;24.752;2023-12-28T01:34:50;6.70;;;2.90;;
70342;SDS011;57767;42.068;24.752;2023-12-28T01:35:52;4.65;;;3.30;;
70342;SDS011;57767;42.068;24.752;2023-12-28T01:36:54;3.85;;;2.70;;
70342;SDS011;57767;42.068;24.752;2023-12-28T01:37:55;5.03;;;2.90;;
70342;SDS011;57767;42.068;24.752;2023-12-28T01:38:59;3.78;;;2.50;;
70342;SDS011;57767;42.068;24.752;2023-12-28T01:40:00;5.93;;;2.90;;
70342;SDS011;57767;42.068;24.752;2023-12-28T01:41:03;6.10;;;3.25;;
70342;SDS011;57767;42.068;24.752;2023-12-28T01:42:04;6.13;;;3.53;;
70342;SDS011;57767;42.068;24.752;2023-12-28T01:43:06;6.15;;;3.30;;
70342;SDS011;57767;42.068;24.752;2023-12-28T01:44:08;8.25;;;4.95;;
70342;SDS011;57767;42.068;24.752;2023-12-28T01:45:10;8.82;;;4.35;;
70342;SDS011;57767;42.068;24.752;2023-12-28T01:46:15;5.60;;;3.17;;
70342;SDS011;57767;42.068;24.752;2023-12-28T01:47:18;11.50;;;3.95;;
70342;SDS011;57767;42.068;24.752;2023-12-28T01:48:20;7.15;;;3.95;;
70342;SDS011;57767;42.068;24.752;2023-12-28T01:49:22;8.15;;;4.35;;
70342;SDS011;57767;42.068;24.752;2023-12-28T01:50:25;18.38;;;9.15;;
70342;SDS011;57767;42.068;24.752;2023-12-28T01:51:28;12.48;;;5.30;;
70342;SDS011;57767;42.068;24.752;2023-12-28T01:52:30;10.68;;;6.25;;
70342;SDS011;57767;42.068;24.752;2023-12-28T01:53:31;6.65;;;3.40;;
70342;SDS011;57767;42.068;24.752;2023-12-28T01:54:33;4.93;;;3.15;;
70342;SDS011;57767;42.068;24.752;2023-12-28T01:55:36;4.00;;;2.70;;
70342;SDS011;57767;42.068;24.752;2023-12-28T01:56:38;5.10;;;2.90;;
70342;SDS011;57767;42.068;24.752;2023-12-28T01:57:40;6.63;;;3.30;;
70342;SDS011;57767;42.068;24.752;2023-12-28T01:58:41;4.97;;;3.20;;
70342;SDS011;57767;42.068;24.752;2023-12-28T01:59:45;5.47;;;3.20;;
70342;SDS011;57767;42.068;24.752;2023-12-28T02:00:47;6.22;;;3.92;;
70342;SDS011;57767;42.068;24.752;2023-12-28T02:01:50;5.55;;;3.90;;
70342;SDS011;57767;42.068;24.752;2023-12-28T02:02:52;4.70;;;3.63;;
70342;SDS011;57767;42.068;24.752;2023-12-28T02:03:54;5.68;;;3.90;;
70342;SDS011;57767;42.068;24.752;2023-12-28T02:04:56;7.40;;;3.88;;
70342;SDS011;57767;42.068;24.752;2023-12-28T02:05:59;7.50;;;4.60;;
70342;SDS011;57767;42.068;24.752;2023-12-28T02:07:02;10.07;;;5.60;;
70342;SDS011;57767;42.068;24.752;2023-12-28T02:08:04;7.43;;;4.70;;
70342;SDS011;57767;42.068;24.752;2023-12-28T02:09:06;7.68;;;4.60;;
70342;SDS011;57767;42.068;24.752;2023-12-28T02:10:08;8.85;;;4.97;;
70342;SDS011;57767;42.068;24.752;2023-12-28T02:11:10;7.93;;;4.40;;
70342;SDS011;57767;42.068;24.752;2023-12-28T02:12:12;5.95;;;4.50;;
70342;SDS011;57767;42.068;24.752;2023-12-28T02:13:13;9.35;;;4.85;;
70342;SDS011;57767;42.068;24.752;2023-12-28T02:14:15;7.57;;;4.97;;
70342;SDS011;57767;42.068;24.752;2023-12-28T02:15:17;7.88;;;5.00;;
70342;SDS011;57767;42.068;24.752;2023-12-28T02:18:48;6.75;;;4.70;;
70342;SDS011;57767;42.068;24.752;2023-12-28T02:19:54;6.15;;;4.60;;
70342;SDS011;57767;42.068;24.752;2023-12-28T02:20:56;6.55;;;4.30;;
70342;SDS011;57767;42.068;24.752;2023-12-28T02:21:59;6.88;;;4.28;;
70342;SDS011;57767;42.068;24.752;2023-12-28T02:23:02;5.43;;;4.10;;
70342;SDS011;57767;42.068;24.752;2023-12-28T02:24:04;7.15;;;4.85;;
70342;SDS011;57767;42.068;24.752;2023-12-28T02:26:12;7.20;;;4.10;;
70342;SDS011;57767;42.068;24.752;2023-12-28T02:27:14;5.53;;;3.70;;
70342;SDS011;57767;42.068;24.752;2023-12-28T02:28:15;5.07;;;3.78;;
70342;SDS011;57767;42.068;24.752;2023-12-28T02:29:17;5.45;;;4.25;;
70342;SDS011;57767;42.068;24.752;2023-12-28T02:30:20;7.85;;;3.60;;
70342;SDS011;57767;42.068;24.752;2023-12-28T02:31:32;6.15;;;3.70;;
70342;SDS011;57767;42.068;24.752;2023-12-28T02:34:00;6.82;;;3.70;;
70342;SDS011;57767;42.068;24.752;2023-12-28T02:35:17;7.07;;;3.65;;
70342;SDS011;57767;42.068;24.752;2023-12-28T02:36:26;6.40;;;3.42;;
70342;SDS011;57767;42.068;24.752;2023-12-28T02:37:28;4.60;;;3.20;;
70342;SDS011;57767;42.068;24.752;2023-12-28T02:38:32;3.60;;;2.83;;
70342;SDS011;57767;42.068;24.752;2023-12-28T02:39:38;4.63;;;2.95;;
70342;SDS011;57767;42.068;24.752;2023-12-28T02:40:40;5.57;;;2.65;;
70342;SDS011;57767;42.068;24.752;2023-12-28T02:41:47;5.72;;;2.80;;
70342;SDS011;57767;42.068;24.752;2023-12-28T02:42:49;4.68;;;2.70;;
70342;SDS011;57767;42.068;24.752;2023-12-28T02:43:50;3.97;;;2.80;;
70342;SDS011;57767;42.068;24.752;2023-12-28T02:44:52;5.60;;;2.72;;
70342;SDS011;57767;42.068;24.752;2023-12-28T02:45:54;4.30;;;2.35;;
70342;SDS011;57767;42.068;24.752;2023-12-28T02:46:56;3.67;;;2.38;;
70342;SDS011;57767;42.068;24.752;2023-12-28T02:47:57;4.28;;;2.20;;
70342;SDS011;57767;42.068;24.752;2023-12-28T02:48:59;4.93;;;2.65;;
70342;SDS011;57767;42.068;24.752;2023-12-28T02:50:01;4.97;;;2.50;;
70342;SDS011;57767;42.068;24.752;2023-12-28T02:51:03;4.10;;;2.80;;
70342;SDS011;57767;42.068;24.752;2023-12-28T02:52:05;5.28;;;2.38;;
70342;SDS011;57767;42.068;24.752;2023-12-28T02:53:06;6.43;;;2.83;;
70342;SDS011;57767;42.068;24.752;2023-12-28T02:54:08;4.80;;;2.75;;
70342;SDS011;57767;42.068;24.752;2023-12-28T02:55:10;5.03;;;2.60;;
70342;SDS011;57767;42.068;24.752;2023-12-28T02:56:11;4.22;;;2.63;;
70342;SDS011;57767;42.068;24.752;2023-12-28T02:57:13;4.00;;;2.95;;
70342;SDS011;57767;42.068;24.752;2023-12-28T02:58:19;4.50;;;2.70;;
70342;SDS011;57767;42.068;24.752;2023-12-28T02:59:21;3.80;;;2.50;;
70342;SDS011;57767;42.068;24.752;2023-12-28T03:00:22;6.05;;;2.50;;
70342;SDS011;57767;42.068;24.752;2023-12-28T03:01:24;4.00;;;2.92;;
70342;SDS011;57767;42.068;24.752;2023-12-28T03:02:26;3.97;;;2.60;;
70342;SDS011;57767;42.068;24.752;2023-12-28T03:03:27;4.47;;;2.67;;
70342;SDS011;57767;42.068;24.752;2023-12-28T03:04:29;5.50;;;3.08;;
70342;SDS011;57767;42.068;24.752;2023-12-28T03:05:31;4.28;;;3.33;;
70342;SDS011;57767;42.068;24.752;2023-12-28T03:06:32;7.90;;;3.75;;
70342;SDS011;57767;42.068;24.752;2023-12-28T03:07:34;7.30;;;3.72;;
70342;SDS011;57767;42.068;24.752;2023-12-28T03:08:37;5.68;;;4.22;;
70342;SDS011;57767;42.068;24.752;2023-12-28T03:09:38;5.80;;;3.90;;
70342;SDS011;57767;42.068;24.752;2023-12-28T03:10:42;4.85;;;3.67;;
70342;SDS011;57767;42.068;24.752;2023-12-28T03:11:43;5.95;;;3.85;;
70342;SDS011;57767;42.068;24.752;2023-12-28T03:12:45;6.50;;;4.10;;
70342;SDS011;57767;42.068;24.752;2023-12-28T03:13:47;7.05;;;4.35;;
70342;SDS011;57767;42.068;24.752;2023-12-28T03:14:49;7.88;;;4.72;;
70342;SDS011;57767;42.068;24.752;2023-12-28T03:15:51;7.65;;;5.65;;
70342;SDS011;57767;42.068;24.752;2023-12-28T03:16:53;9.45;;;5.80;;
70342;SDS011;57767;42.068;24.752;2023-12-28T03:17:54;7.57;;;5.43;;
70342;SDS011;57767;42.068;24.752;2023-12-28T03:18:56;10.90;;;6.80;;
70342;SDS011;57767;42.068;24.752;2023-12-28T03:19:58;11.13;;;6.57;;
70342;SDS011;57767;42.068;24.752;2023-12-28T03:21:01;10.20;;;6.65;;
70342;SDS011;57767;42.068;24.752;2023-12-28T03:22:02;9.23;;;6.63;;
70342;SDS011;57767;42.068;24.752;2023-12-28T03:23:04;10.93;;;6.97;;
70342;SDS011;57767;42.068;24.752;2023-12-28T03:24:06;10.65;;;7.30;;
70342;SDS011;57767;42.068;24.752;2023-12-28T03:25:08;11.65;;;8.18;;
70342;SDS011;57767;42.068;24.752;2023-12-28T03:26:09;11.48;;;8.13;;
70342;SDS011;57767;42.068;24.752;2023-12-28T03:27:11;15.65;;;8.80;;
70342;SDS011;57767;42.068;24.752;2023-12-28T03:28:13;14.95;;;8.70;;
70342;SDS011;57767;42.068;24.752;2023-12-28T03:29:14;12.77;;;7.68;;
70342;SDS011;57767;42.068;24.752;2023-12-28T03:30:16;11.35;;;7.30;;
70342;SDS011;57767;42.068;24.752;2023-12-28T03:31:18;11.65;;;7.65;;
70342;SDS011;57767;42.068;24.752;2023-12-28T03:32:19;11.02;;;6.90;;
70342;SDS011;57767;42.068;24.752;2023-12-28T03:33:21;9.48;;;6.85;;
70342;SDS011;57767;42.068;24.752;2023-12-28T03:34:23;10.35;;;7.05;;
70342;SDS011;57767;42.068;24.752;2023-12-28T03:35:25;11.63;;;6.15;;
70342;SDS011;57767;42.068;24.752;2023-12-28T03:36:26;9.13;;;4.78;;
70342;SDS011;57767;42.068;24.752;2023-12-28T03:37:28;7.50;;;4.97;;
70342;SDS011;57767;42.068;24.752;2023-12-28T03:38:30;6.40;;;4.07;;
70342;SDS011;57767;42.068;24.752;2023-12-28T03:39:31;7.53;;;4.70;;
70342;SDS011;57767;42.068;24.752;2023-12-28T03:40:34;5.90;;;2.97;;
70342;SDS011;57767;42.068;24.752;2023-12-28T03:41:36;3.28;;;2.67;;
70342;SDS011;57767;42.068;24.752;2023-12-28T03:42:37;3.92;;;2.75;;
70342;SDS011;57767;42.068;24.752;2023-12-28T03:43:39;5.47;;;2.50;;
70342;SDS011;57767;42.068;24.752;2023-12-28T03:44:41;4.30;;;2.67;;
70342;SDS011;57767;42.068;24.752;2023-12-28T03:45:43;3.22;;;2.40;;
70342;SDS011;57767;42.068;24.752;2023-12-28T03:46:44;2.90;;;2.50;;
70342;SDS011;57767;42.068;24.752;2023-12-28T03:47:46;4.93;;;2.67;;
70342;SDS011;57767;42.068;24.752;2023-12-28T03:48:48;3.38;;;2.40;;
70342;SDS011;57767;42.068;24.752;2023-12-28T03:49:49;3.97;;;2.53;;
70342;SDS011;57767;42.068;24.752;2023-12-28T03:50:51;2.88;;;2.30;;
70342;SDS011;57767;42.068;24.752;2023-12-28T03:51:53;2.95;;;2.20;;
70342;SDS011;57767;42.068;24.752;2023-12-28T03:52:55;5.05;;;2.97;;
70342;SDS011;57767;42.068;24.752;2023-12-28T03:53:57;3.83;;;2.25;;
70342;SDS011;57767;42.068;24.752;2023-12-28T03:54:58;3.50;;;2.53;;
70342;SDS011;57767;42.068;24.752;2023-12-28T03:56:00;4.32;;;2.42;;
70342;SDS011;57767;42.068;24.752;2023-12-28T03:57:02;4.35;;;2.40;;
70342;SDS011;57767;42.068;24.752;2023-12-28T03:58:03;4.82;;;2.60;;
70342;SDS011;57767;42.068;24.752;2023-12-28T03:59:05;3.55;;;2.50;;
70342;SDS011;57767;42.068;24.752;2023-12-28T04:00:08;4.15;;;2.47;;
70342;SDS011;57767;42.068;24.752;2023-12-28T04:01:10;4.40;;;2.38;;
70342;SDS011;57767;42.068;24.752;2023-12-28T04:02:12;3.75;;;2.20;;
70342;SDS011;57767;42.068;24.752;2023-12-28T04:03:13;2.53;;;1.90;;
70342;SDS011;57767;42.068;24.752;2023-12-28T04:04:15;3.88;;;2.42;;
70342;SDS011;57767;42.068;24.752;2023-12-28T04:05:17;7.68;;;3.97;;
70342;SDS011;57767;42.068;24.752;2023-12-28T04:06:19;7.50;;;4.57;;
70342;SDS011;57767;42.068;24.752;2023-12-28T04:07:20;8.40;;;4.65;;
70342;SDS011;57767;42.068;24.752;2023-12-28T04:08:22;8.73;;;5.63;;
70342;SDS011;57767;42.068;24.752;2023-12-28T04:09:24;10.10;;;5.65;;
70342;SDS011;57767;42.068;24.752;2023-12-28T04:10:29;11.13;;;6.00;;
70342;SDS011;57767;42.068;24.752;2023-12-28T04:11:33;12.82;;;6.55;;
70342;SDS011;57767;42.068;24.752;2023-12-28T04:12:35;9.70;;;6.45;;
70342;SDS011;57767;42.068;24.752;2023-12-28T04:13:38;9.23;;;5.15;;
70342;SDS011;57767;42.068;24.752;2023-12-28T04:14:40;11.52;;;5.97;;
70342;SDS011;57767;42.068;24.752;2023-12-28T04:15:42;10.77;;;6.07;;
70342;SDS011;57767;42.068;24.752;2023-12-28T04:16:46;9.70;;;5.85;;
70342;SDS011;57767;42.068;24.752;2023-12-28T04:17:48;15.57;;;7.32;;
70342;SDS011;57767;42.068;24.752;2023-12-28T04:18:50;10.15;;;5.95;;
70342;SDS011;57767;42.068;24.752;2023-12-28T04:19:51;10.23;;;5.90;;
70342;SDS011;57767;42.068;24.752;2023-12-28T04:20:53;9.52;;;6.22;;
70342;SDS011;57767;42.068;24.752;2023-12-28T04:21:55;11.82;;;6.28;;
70342;SDS011;57767;42.068;24.752;2023-12-28T04:22:57;10.25;;;5.85;;
70342;SDS011;57767;42.068;24.752;2023-12-28T04:23:59;10.48;;;6.70;;
70342;SDS011;57767;42.068;24.752;2023-12-28T04:25:00;15.18;;;8.10;;
70342;SDS011;57767;42.068;24.752;2023-12-28T04:26:02;13.27;;;7.68;;
70342;SDS011;57767;42.068;24.752;2023-12-28T04:27:04;10.60;;;6.60;;
70342;SDS011;57767;42.068;24.752;2023-12-28T04:28:06;14.93;;;6.85;;
70342;SDS011;57767;42.068;24.752;2023-12-28T04:29:08;12.10;;;5.82;;
70342;SDS011;57767;42.068;24.752;2023-12-28T04:30:12;10.88;;;6.32;;
70342;SDS011;57767;42.068;24.752;2023-12-28T04:31:14;11.85;;;5.80;;
70342;SDS011;57767;42.068;24.752;2023-12-28T04:32:16;9.13;;;5.65;;
70342;SDS011;57767;42.068;24.752;2023-12-28T04:33:18;9.93;;;5.70;;
70342;SDS011;57767;42.068;24.752;2023-12-28T04:34:20;8.27;;;5.57;;
70342;SDS011;57767;42.068;24.752;2023-12-28T04:35:22;8.02;;;5.20;;
70342;SDS011;57767;42.068;24.752;2023-12-28T04:36:24;7.35;;;5.18;;
70342;SDS011;57767;42.068;24.752;2023-12-28T04:37:25;12.30;;;5.43;;
70342;SDS011;57767;42.068;24.752;2023-12-28T04:38:28;8.93;;;5.38;;
70342;SDS011;57767;42.068;24.752;2023-12-28T04:39:29;9.82;;;5.70;;
70342;SDS011;57767;42.068;24.752;2023-12-28T04:40:31;9.23;;;5.35;;
70342;SDS011;57767;42.068;24.752;2023-12-28T04:41:34;8.95;;;5.20;;
70342;SDS011;57767;42.068;24.752;2023-12-28T04:42:36;7.95;;;4.75;;
70342;SDS011;57767;42.068;24.752;2023-12-28T04:43:38;9.27;;;4.75;;
70342;SDS011;57767;42.068;24.752;2023-12-28T04:44:40;7.57;;;4.47;;
70342;SDS011;57767;42.068;24.752;2023-12-28T04:45:42;7.60;;;4.55;;
70342;SDS011;57767;42.068;24.752;2023-12-28T04:46:44;9.52;;;4.90;;
70342;SDS011;57767;42.068;24.752;2023-12-28T04:47:46;8.30;;;4.80;;
70342;SDS011;57767;42.068;24.752;2023-12-28T04:48:48;10.80;;;5.07;;
70342;SDS011;57767;42.068;24.752;2023-12-28T04:49:50;8.35;;;5.57;;
70342;SDS011;57767;42.068;24.752;2023-12-28T04:50:52;8.95;;;5.72;;
70342;SDS011;57767;42.068;24.752;2023-12-28T04:51:54;9.68;;;5.60;;
70342;SDS011;57767;42.068;24.752;2023-12-28T04:52:56;9.75;;;6.30;;
70342;SDS011;57767;42.068;24.752;2023-12-28T04:53:58;10.40;;;6.25;;
70342;SDS011;57767;42.068;24.752;2023-12-28T04:54:59;10.63;;;6.43;;
70342;SDS011;57767;42.068;24.752;2023-12-28T04:56:01;9.88;;;6.75;;
70342;SDS011;57767;42.068;24.752;2023-12-28T04:57:03;10.77;;;6.55;;
70342;SDS011;57767;42.068;24.752;2023-12-28T04:58:05;11.15;;;6.65;;
70342;SDS011;57767;42.068;24.752;2023-12-28T04:59:06;8.98;;;6.00;;
70342;SDS011;57767;42.068;24.752;2023-12-28T05:00:08;14.82;;;6.85;;
70342;SDS011;57767;42.068;24.752;2023-12-28T05:01:10;11.75;;;7.18;;
70342;SDS011;57767;42.068;24.752;2023-12-28T05:02:12;10.32;;;6.40;;
70342;SDS011;57767;42.068;24.752;2023-12-28T05:03:13;11.52;;;6.40;;
70342;SDS011;57767;42.068;24.752;2023-12-28T05:04:16;10.77;;;6.30;;
70342;SDS011;57767;42.068;24.752;2023-12-28T05:05:18;9.00;;;6.43;;
70342;SDS011;57767;42.068;24.752;2023-12-28T05:06:20;11.77;;;6.60;;
70342;SDS011;57767;42.068;24.752;2023-12-28T05:07:21;14.50;;;6.18;;
70342;SDS011;57767;42.068;24.752;2023-12-28T05:08:23;11.43;;;6.78;;
70342;SDS011;57767;42.068;24.752;2023-12-28T05:09:25;8.45;;;6.20;;
70342;SDS011;57767;42.068;24.752;2023-12-28T05:10:26;9.65;;;6.40;;
70342;SDS011;57767;42.068;24.752;2023-12-28T05:11:28;10.75;;;6.13;;
70342;SDS011;57767;42.068;24.752;2023-12-28T05:12:30;12.45;;;7.18;;
70342;SDS011;57767;42.068;24.752;2023-12-28T05:13:44;14.05;;;8.82;;
70342;SDS011;57767;42.068;24.752;2023-12-28T05:14:45;20.25;;;11.25;;
70342;SDS011;57767;42.068;24.752;2023-12-28T05:15:47;28.40;;;13.30;;
70342;SDS011;57767;42.068;24.752;2023-12-28T05:16:49;34.75;;;16.83;;
70342;SDS011;57767;42.068;24.752;2023-12-28T05:17:50;43.35;;;19.17;;
70342;SDS011;57767;42.068;24.752;2023-12-28T05:18:52;43.13;;;19.70;;
70342;SDS011;57767;42.068;24.752;2023-12-28T05:19:54;52.63;;;19.75;;
70342;SDS011;57767;42.068;24.752;2023-12-28T05:20:57;61.65;;;19.25;;
70342;SDS011;57767;42.068;24.752;2023-12-28T05:21:59;35.90;;;13.98;;
70342;SDS011;57767;42.068;24.752;2023-12-28T05:23:04;23.35;;;10.38;;
70342;SDS011;57767;42.068;24.752;2023-12-28T05:24:05;15.80;;;8.95;;
70342;SDS011;57767;42.068;24.752;2023-12-28T05:25:08;32.20;;;10.43;;
70342;SDS011;57767;42.068;24.752;2023-12-28T05:26:10;18.98;;;9.88;;
70342;SDS011;57767;42.068;24.752;2023-12-28T05:27:11;18.73;;;9.32;;
70342;SDS011;57767;42.068;24.752;2023-12-28T05:28:13;24.98;;;10.75;;
70342;SDS011;57767;42.068;24.752;2023-12-28T05:29:15;18.95;;;9.68;;
70342;SDS011;57767;42.068;24.752;2023-12-28T05:30:16;18.52;;;9.45;;
70342;SDS011;57767;42.068;24.752;2023-12-28T05:31:18;18.17;;;7.97;;
70342;SDS011;57767;42.068;24.752;2023-12-28T05:32:20;18.77;;;8.75;;
70342;SDS011;57767;42.068;24.752;2023-12-28T05:33:21;15.77;;;8.15;;
70342;SDS011;57767;42.068;24.752;2023-12-28T05:34:24;14.10;;;8.05;;
70342;SDS011;57767;42.068;24.752;2023-12-28T05:35:25;13.50;;;7.38;;
70342;SDS011;57767;42.068;24.752;2023-12-28T05:36:27;14.38;;;6.13;;
70342;SDS011;57767;42.068;24.752;2023-12-28T05:37:29;12.80;;;6.57;;
70342;SDS011;57767;42.068;24.752;2023-12-28T05:38:31;11.35;;;6.60;;
70342;SDS011;57767;42.068;24.752;2023-12-28T05:39:33;9.23;;;5.88;;
70342;SDS011;57767;42.068;24.752;2023-12-28T05:40:34;10.82;;;6.53;;
70342;SDS011;57767;42.068;24.752;2023-12-28T05:41:36;11.00;;;5.57;;
70342;SDS011;57767;42.068;24.752;2023-12-28T05:42:37;8.38;;;5.28;;
70342;SDS011;57767;42.068;24.752;2023-12-28T05:43:39;11.77;;;6.40;;
70342;SDS011;57767;42.068;24.752;2023-12-28T05:44:41;9.25;;;5.75;;
70342;SDS011;57767;42.068;24.752;2023-12-28T05:45:42;11.75;;;6.60;;
70342;SDS011;57767;42.068;24.752;2023-12-28T05:46:44;11.70;;;6.60;;
70342;SDS011;57767;42.068;24.752;2023-12-28T05:47:46;13.00;;;7.13;;
70342;SDS011;57767;42.068;24.752;2023-12-28T05:48:47;14.25;;;6.70;;
70342;SDS011;57767;42.068;24.752;2023-12-28T05:49:49;12.07;;;6.97;;
70342;SDS011;57767;42.068;24.752;2023-12-28T05:50:51;14.88;;;7.78;;
70342;SDS011;57767;42.068;24.752;2023-12-28T05:51:52;17.52;;;7.47;;
70342;SDS011;57767;42.068;24.752;2023-12-28T05:52:54;14.38;;;6.75;;
70342;SDS011;57767;42.068;24.752;2023-12-28T05:53:56;14.32;;;6.78;;
70342;SDS011;57767;42.068;24.752;2023-12-28T05:54:58;17.27;;;8.00;;
70342;SDS011;57767;42.068;24.752;2023-12-28T05:56:00;16.83;;;8.38;;
70342;SDS011;57767;42.068;24.752;2023-12-28T05:57:04;13.50;;;7.28;;
70342;SDS011;57767;42.068;24.752;2023-12-28T05:58:06;18.40;;;8.00;;
70342;SDS011;57767;42.068;24.752;2023-12-28T05:59:07;20.55;;;8.30;;
70342;SDS011;57767;42.068;24.752;2023-12-28T06:00:09;15.30;;;8.05;;
70342;SDS011;57767;42.068;24.752;2023-12-28T06:01:12;15.07;;;7.70;;
70342;SDS011;57767;42.068;24.752;2023-12-28T06:02:14;15.13;;;8.55;;
70342;SDS011;57767;42.068;24.752;2023-12-28T06:03:15;13.13;;;7.53;;
70342;SDS011;57767;42.068;24.752;2023-12-28T06:04:17;12.80;;;8.02;;
70342;SDS011;57767;42.068;24.752;2023-12-28T06:05:19;15.20;;;8.80;;
70342;SDS011;57767;42.068;24.752;2023-12-28T06:06:20;14.57;;;8.57;;
70342;SDS011;57767;42.068;24.752;2023-12-28T06:07:22;11.82;;;7.85;;
70342;SDS011;57767;42.068;24.752;2023-12-28T06:08:24;11.82;;;7.50;;
70342;SDS011;57767;42.068;24.752;2023-12-28T06:09:28;14.45;;;9.30;;
70342;SDS011;57767;42.068;24.752;2023-12-28T06:10:30;16.63;;;10.40;;
70342;SDS011;57767;42.068;24.752;2023-12-28T06:11:31;18.63;;;10.10;;
70342;SDS011;57767;42.068;24.752;2023-12-28T06:12:33;16.63;;;10.15;;